sensor_id;sensor_type;location;lat;lon;timestamp;P1;durP1;ratioP1;P2;durP2;ratioP2
7473;SDS011;3778;42.572;23.426;2023-02-27T00:00:29;24.33;;;8.13;;
7473;SDS011;3778;42.572;23.426;2023-02-27T00:02:56;25.97;;;9.33;;
7473;SDS011;3778;42.572;23.426;2023-02-27T00:05:23;26.73;;;8.23;;
7473;SDS011;3778;42.572;23.426;2023-02-27T00:07:51;16.67;;;7.57;;
7473;SDS011;3778;42.572;23.426;2023-02-27T00:10:18;31.20;;;12.17;;
7473;SDS011;3778;42.572;23.426;2023-02-27T00:12:45;24.03;;;8.90;;
7473;SDS011;3778;42.572;23.426;2023-02-27T00:15:12;26.23;;;9.70;;
7473;SDS011;3778;42.572;23.426;2023-02-27T00:17:41;25.50;;;10.23;;
7473;SDS011;3778;42.572;23.426;2023-02-27T00:20:09;29.37;;;10.57;;
7473;SDS011;3778;42.572;23.426;2023-02-27T00:22:38;19.67;;;7.07;;
7473;SDS011;3778;42.572;23.426;2023-02-27T00:25:07;25.87;;;9.10;;
7473;SDS011;3778;42.572;23.426;2023-02-27T00:27:34;21.70;;;7.27;;
7473;SDS011;3778;42.572;23.426;2023-02-27T00:30:02;18.97;;;8.17;;
7473;SDS011;3778;42.572;23.426;2023-02-27T00:32:29;18.40;;;7.77;;
7473;SDS011;3778;42.572;23.426;2023-02-27T00:34:56;25.93;;;10.83;;
7473;SDS011;3778;42.572;23.426;2023-02-27T00:37:22;25.23;;;8.63;;
7473;SDS011;3778;42.572;23.426;2023-02-27T00:39:49;33.00;;;8.10;;
7473;SDS011;3778;42.572;23.426;2023-02-27T00:42:17;25.67;;;9.00;;
7473;SDS011;3778;42.572;23.426;2023-02-27T00:44:44;23.87;;;9.13;;
7473;SDS011;3778;42.572;23.426;2023-02-27T00:47:11;17.37;;;7.03;;
7473;SDS011;3778;42.572;23.426;2023-02-27T00:49:37;24.27;;;8.47;;
7473;SDS011;3778;42.572;23.426;2023-02-27T00:52:04;29.87;;;9.70;;
7473;SDS011;3778;42.572;23.426;2023-02-27T00:54:31;22.73;;;8.10;;
7473;SDS011;3778;42.572;23.426;2023-02-27T00:56:57;21.63;;;9.10;;
7473;SDS011;3778;42.572;23.426;2023-02-27T00:59:25;20.87;;;7.07;;
7473;SDS011;3778;42.572;23.426;2023-02-27T01:01:52;26.23;;;9.10;;
7473;SDS011;3778;42.572;23.426;2023-02-27T01:04:19;38.77;;;6.87;;
7473;SDS011;3778;42.572;23.426;2023-02-27T01:06:46;26.33;;;5.83;;
7473;SDS011;3778;42.572;23.426;2023-02-27T01:09:12;15.27;;;6.30;;
7473;SDS011;3778;42.572;23.426;2023-02-27T01:11:39;26.53;;;8.07;;
7473;SDS011;3778;42.572;23.426;2023-02-27T01:14:06;18.73;;;7.47;;
7473;SDS011;3778;42.572;23.426;2023-02-27T01:16:34;21.80;;;8.03;;
7473;SDS011;3778;42.572;23.426;2023-02-27T01:19:00;12.23;;;5.87;;
7473;SDS011;3778;42.572;23.426;2023-02-27T01:21:27;22.80;;;7.33;;
7473;SDS011;3778;42.572;23.426;2023-02-27T01:23:54;25.57;;;6.63;;
7473;SDS011;3778;42.572;23.426;2023-02-27T01:26:21;26.90;;;8.57;;
7473;SDS011;3778;42.572;23.426;2023-02-27T01:28:47;18.07;;;6.40;;
7473;SDS011;3778;42.572;23.426;2023-02-27T01:31:14;16.57;;;6.60;;
7473;SDS011;3778;42.572;23.426;2023-02-27T01:33:42;25.53;;;8.90;;
7473;SDS011;3778;42.572;23.426;2023-02-27T01:36:09;29.13;;;6.53;;
7473;SDS011;3778;42.572;23.426;2023-02-27T01:38:36;15.83;;;5.50;;
7473;SDS011;3778;42.572;23.426;2023-02-27T01:41:03;16.90;;;5.73;;
7473;SDS011;3778;42.572;23.426;2023-02-27T01:43:31;25.13;;;6.70;;
7473;SDS011;3778;42.572;23.426;2023-02-27T01:45:58;20.23;;;6.53;;
7473;SDS011;3778;42.572;23.426;2023-02-27T01:48:26;22.87;;;7.20;;
7473;SDS011;3778;42.572;23.426;2023-02-27T01:50:59;16.90;;;5.87;;
7473;SDS011;3778;42.572;23.426;2023-02-27T01:53:29;23.17;;;5.93;;
7473;SDS011;3778;42.572;23.426;2023-02-27T01:55:59;21.23;;;7.00;;
7473;SDS011;3778;42.572;23.426;2023-02-27T01:58:29;18.43;;;7.33;;
7473;SDS011;3778;42.572;23.426;2023-02-27T02:00:56;23.57;;;5.73;;
7473;SDS011;3778;42.572;23.426;2023-02-27T02:03:24;20.67;;;5.57;;
7473;SDS011;3778;42.572;23.426;2023-02-27T02:05:55;17.10;;;5.73;;
7473;SDS011;3778;42.572;23.426;2023-02-27T02:08:26;19.80;;;6.10;;
7473;SDS011;3778;42.572;23.426;2023-02-27T02:10:57;20.50;;;5.53;;
7473;SDS011;3778;42.572;23.426;2023-02-27T02:13:24;19.13;;;5.43;;
7473;SDS011;3778;42.572;23.426;2023-02-27T02:15:54;18.60;;;5.87;;
7473;SDS011;3778;42.572;23.426;2023-02-27T02:18:31;29.17;;;5.47;;
7473;SDS011;3778;42.572;23.426;2023-02-27T02:27:28;10.97;;;1.83;;
7473;SDS011;3778;42.572;23.426;2023-02-27T02:30:23;2.87;;;1.40;;
7473;SDS011;3778;42.572;23.426;2023-02-27T02:39:48;4.43;;;1.00;;
7473;SDS011;3778;42.572;23.426;2023-02-27T02:42:32;7.03;;;1.30;;
7473;SDS011;3778;42.572;23.426;2023-02-27T02:45:08;1.90;;;0.90;;
7473;SDS011;3778;42.572;23.426;2023-02-27T02:47:41;6.30;;;0.90;;
7473;SDS011;3778;42.572;23.426;2023-02-27T02:50:19;2.17;;;1.20;;
7473;SDS011;3778;42.572;23.426;2023-02-27T02:52:50;3.23;;;1.00;;
7473;SDS011;3778;42.572;23.426;2023-02-27T02:55:28;1.50;;;0.90;;
7473;SDS011;3778;42.572;23.426;2023-02-27T02:58:00;0.73;;;0.73;;
7473;SDS011;3778;42.572;23.426;2023-02-27T03:00:34;1.30;;;1.00;;
7473;SDS011;3778;42.572;23.426;2023-02-27T03:03:09;2.10;;;1.27;;
7473;SDS011;3778;42.572;23.426;2023-02-27T03:05:41;1.00;;;0.90;;
7473;SDS011;3778;42.572;23.426;2023-02-27T03:08:13;2.70;;;1.00;;
7473;SDS011;3778;42.572;23.426;2023-02-27T03:10:47;0.90;;;0.90;;
7473;SDS011;3778;42.572;23.426;2023-02-27T03:13:19;1.37;;;1.00;;
7473;SDS011;3778;42.572;23.426;2023-02-27T03:15:57;0.80;;;0.80;;
7473;SDS011;3778;42.572;23.426;2023-02-27T03:18:31;2.67;;;1.20;;
7473;SDS011;3778;42.572;23.426;2023-02-27T03:21:03;4.03;;;1.10;;
7473;SDS011;3778;42.572;23.426;2023-02-27T03:23:34;0.80;;;0.80;;
7473;SDS011;3778;42.572;23.426;2023-02-27T03:26:07;0.93;;;0.90;;
7473;SDS011;3778;42.572;23.426;2023-02-27T03:28:38;2.80;;;0.97;;
7473;SDS011;3778;42.572;23.426;2023-02-27T03:31:12;1.10;;;1.00;;
7473;SDS011;3778;42.572;23.426;2023-02-27T03:33:46;3.97;;;1.10;;
7473;SDS011;3778;42.572;23.426;2023-02-27T03:36:18;0.80;;;0.80;;
7473;SDS011;3778;42.572;23.426;2023-02-27T03:38:53;0.63;;;0.63;;
7473;SDS011;3778;42.572;23.426;2023-02-27T03:41:29;2.37;;;1.30;;
7473;SDS011;3778;42.572;23.426;2023-02-27T03:44:03;3.00;;;1.20;;
7473;SDS011;3778;42.572;23.426;2023-02-27T03:46:34;4.30;;;1.20;;
7473;SDS011;3778;42.572;23.426;2023-02-27T03:49:02;1.90;;;1.00;;
7473;SDS011;3778;42.572;23.426;2023-02-27T03:51:30;1.53;;;1.37;;
7473;SDS011;3778;42.572;23.426;2023-02-27T03:53:59;3.93;;;1.63;;
7473;SDS011;3778;42.572;23.426;2023-02-27T03:56:33;4.17;;;1.43;;
7473;SDS011;3778;42.572;23.426;2023-02-27T03:59:05;3.47;;;1.50;;
7473;SDS011;3778;42.572;23.426;2023-02-27T04:01:33;6.63;;;1.73;;
7473;SDS011;3778;42.572;23.426;2023-02-27T04:04:00;4.23;;;2.17;;
7473;SDS011;3778;42.572;23.426;2023-02-27T04:06:31;3.53;;;1.73;;
7473;SDS011;3778;42.572;23.426;2023-02-27T04:09:18;2.67;;;1.97;;
7473;SDS011;3778;42.572;23.426;2023-02-27T04:11:57;3.80;;;2.13;;
7473;SDS011;3778;42.572;23.426;2023-02-27T04:14:39;5.03;;;2.43;;
7473;SDS011;3778;42.572;23.426;2023-02-27T04:17:22;8.23;;;2.77;;
7473;SDS011;3778;42.572;23.426;2023-02-27T04:20:01;4.40;;;2.10;;
7473;SDS011;3778;42.572;23.426;2023-02-27T04:22:43;5.47;;;2.40;;
7473;SDS011;3778;42.572;23.426;2023-02-27T04:25:26;4.90;;;3.10;;
7473;SDS011;3778;42.572;23.426;2023-02-27T04:28:06;4.03;;;2.20;;
7473;SDS011;3778;42.572;23.426;2023-02-27T04:30:41;2.10;;;1.80;;
7473;SDS011;3778;42.572;23.426;2023-02-27T04:33:20;3.93;;;2.77;;
7473;SDS011;3778;42.572;23.426;2023-02-27T04:35:55;4.10;;;2.47;;
7473;SDS011;3778;42.572;23.426;2023-02-27T04:38:25;3.57;;;2.50;;
7473;SDS011;3778;42.572;23.426;2023-02-27T04:40:55;3.90;;;2.90;;
7473;SDS011;3778;42.572;23.426;2023-02-27T04:43:27;3.93;;;2.50;;
7473;SDS011;3778;42.572;23.426;2023-02-27T04:45:56;4.60;;;2.67;;
7473;SDS011;3778;42.572;23.426;2023-02-27T04:48:26;6.27;;;2.87;;
7473;SDS011;3778;42.572;23.426;2023-02-27T04:50:59;5.80;;;3.63;;
7473;SDS011;3778;42.572;23.426;2023-02-27T04:53:32;4.40;;;2.60;;
7473;SDS011;3778;42.572;23.426;2023-02-27T04:56:12;3.90;;;2.83;;
7473;SDS011;3778;42.572;23.426;2023-02-27T04:58:44;5.27;;;3.03;;
7473;SDS011;3778;42.572;23.426;2023-02-27T05:01:15;5.73;;;3.33;;
7473;SDS011;3778;42.572;23.426;2023-02-27T05:03:46;4.90;;;2.90;;
7473;SDS011;3778;42.572;23.426;2023-02-27T05:06:16;6.27;;;3.70;;
7473;SDS011;3778;42.572;23.426;2023-02-27T05:08:48;4.20;;;2.97;;
7473;SDS011;3778;42.572;23.426;2023-02-27T05:11:20;4.97;;;2.33;;
7473;SDS011;3778;42.572;23.426;2023-02-27T05:13:55;5.30;;;2.77;;
7473;SDS011;3778;42.572;23.426;2023-02-27T05:16:28;4.60;;;2.70;;
7473;SDS011;3778;42.572;23.426;2023-02-27T05:18:58;4.97;;;2.80;;
7473;SDS011;3778;42.572;23.426;2023-02-27T05:21:28;8.57;;;4.07;;
7473;SDS011;3778;42.572;23.426;2023-02-27T05:24:02;4.93;;;3.27;;
7473;SDS011;3778;42.572;23.426;2023-02-27T05:26:41;5.10;;;3.27;;
7473;SDS011;3778;42.572;23.426;2023-02-27T05:29:24;8.70;;;4.07;;
7473;SDS011;3778;42.572;23.426;2023-02-27T05:32:00;6.43;;;3.80;;
7473;SDS011;3778;42.572;23.426;2023-02-27T05:34:33;7.60;;;4.07;;
7473;SDS011;3778;42.572;23.426;2023-02-27T05:37:06;8.20;;;3.40;;
7473;SDS011;3778;42.572;23.426;2023-02-27T05:39:37;7.97;;;4.07;;
7473;SDS011;3778;42.572;23.426;2023-02-27T05:42:07;8.37;;;4.27;;
7473;SDS011;3778;42.572;23.426;2023-02-27T05:44:41;7.00;;;4.13;;
7473;SDS011;3778;42.572;23.426;2023-02-27T05:47:12;9.17;;;4.20;;
7473;SDS011;3778;42.572;23.426;2023-02-27T05:49:44;8.23;;;4.60;;
7473;SDS011;3778;42.572;23.426;2023-02-27T05:52:16;9.10;;;4.77;;
7473;SDS011;3778;42.572;23.426;2023-02-27T05:54:49;8.67;;;4.30;;
7473;SDS011;3778;42.572;23.426;2023-02-27T05:57:20;6.30;;;3.77;;
7473;SDS011;3778;42.572;23.426;2023-02-27T05:59:54;9.57;;;3.90;;
7473;SDS011;3778;42.572;23.426;2023-02-27T06:02:27;6.83;;;4.53;;
7473;SDS011;3778;42.572;23.426;2023-02-27T06:04:53;9.00;;;4.67;;
7473;SDS011;3778;42.572;23.426;2023-02-27T06:07:21;8.10;;;4.80;;
7473;SDS011;3778;42.572;23.426;2023-02-27T06:09:48;8.30;;;3.70;;
7473;SDS011;3778;42.572;23.426;2023-02-27T06:12:15;5.90;;;3.77;;
7473;SDS011;3778;42.572;23.426;2023-02-27T06:14:43;5.23;;;3.83;;
7473;SDS011;3778;42.572;23.426;2023-02-27T06:17:11;6.47;;;3.67;;
7473;SDS011;3778;42.572;23.426;2023-02-27T06:19:38;6.83;;;4.27;;
7473;SDS011;3778;42.572;23.426;2023-02-27T06:22:05;9.30;;;4.57;;
7473;SDS011;3778;42.572;23.426;2023-02-27T06:24:32;5.23;;;3.63;;
7473;SDS011;3778;42.572;23.426;2023-02-27T06:26:58;9.23;;;4.73;;
7473;SDS011;3778;42.572;23.426;2023-02-27T06:29:25;7.30;;;4.27;;
7473;SDS011;3778;42.572;23.426;2023-02-27T06:31:52;8.27;;;5.03;;
7473;SDS011;3778;42.572;23.426;2023-02-27T06:34:20;6.87;;;4.83;;
7473;SDS011;3778;42.572;23.426;2023-02-27T06:36:46;6.40;;;4.67;;
7473;SDS011;3778;42.572;23.426;2023-02-27T06:39:13;7.40;;;5.37;;
7473;SDS011;3778;42.572;23.426;2023-02-27T06:41:40;7.43;;;5.40;;
7473;SDS011;3778;42.572;23.426;2023-02-27T06:44:07;6.47;;;5.47;;
7473;SDS011;3778;42.572;23.426;2023-02-27T06:46:34;8.33;;;5.13;;
7473;SDS011;3778;42.572;23.426;2023-02-27T06:49:01;8.57;;;5.87;;
7473;SDS011;3778;42.572;23.426;2023-02-27T06:51:29;6.77;;;4.83;;
7473;SDS011;3778;42.572;23.426;2023-02-27T06:53:55;7.63;;;4.57;;
7473;SDS011;3778;42.572;23.426;2023-02-27T06:56:22;11.13;;;5.40;;
7473;SDS011;3778;42.572;23.426;2023-02-27T06:58:49;7.30;;;5.33;;
7473;SDS011;3778;42.572;23.426;2023-02-27T07:01:16;7.67;;;4.93;;
7473;SDS011;3778;42.572;23.426;2023-02-27T07:03:43;7.50;;;5.23;;
7473;SDS011;3778;42.572;23.426;2023-02-27T07:06:09;9.53;;;6.20;;
7473;SDS011;3778;42.572;23.426;2023-02-27T07:08:38;12.30;;;7.07;;
7473;SDS011;3778;42.572;23.426;2023-02-27T07:11:05;8.37;;;5.33;;
7473;SDS011;3778;42.572;23.426;2023-02-27T07:13:32;9.67;;;6.63;;
7473;SDS011;3778;42.572;23.426;2023-02-27T07:15:59;7.27;;;4.70;;
7473;SDS011;3778;42.572;23.426;2023-02-27T07:18:25;6.33;;;4.87;;
7473;SDS011;3778;42.572;23.426;2023-02-27T07:20:52;7.70;;;5.10;;
7473;SDS011;3778;42.572;23.426;2023-02-27T07:23:20;6.33;;;4.37;;
7473;SDS011;3778;42.572;23.426;2023-02-27T07:25:48;7.03;;;5.00;;
7473;SDS011;3778;42.572;23.426;2023-02-27T07:28:15;8.43;;;5.00;;
7473;SDS011;3778;42.572;23.426;2023-02-27T07:30:43;8.07;;;5.07;;
7473;SDS011;3778;42.572;23.426;2023-02-27T07:33:09;6.07;;;3.87;;
7473;SDS011;3778;42.572;23.426;2023-02-27T07:35:36;6.33;;;4.50;;
7473;SDS011;3778;42.572;23.426;2023-02-27T07:38:03;7.37;;;3.80;;
7473;SDS011;3778;42.572;23.426;2023-02-27T07:40:29;6.50;;;3.67;;
7473;SDS011;3778;42.572;23.426;2023-02-27T07:42:57;5.03;;;3.50;;
7473;SDS011;3778;42.572;23.426;2023-02-27T07:45:24;7.43;;;4.30;;
7473;SDS011;3778;42.572;23.426;2023-02-27T07:47:51;4.70;;;2.90;;
7473;SDS011;3778;42.572;23.426;2023-02-27T07:50:18;4.30;;;3.17;;
7473;SDS011;3778;42.572;23.426;2023-02-27T07:52:44;6.80;;;3.97;;
7473;SDS011;3778;42.572;23.426;2023-02-27T07:55:12;5.33;;;3.37;;
7473;SDS011;3778;42.572;23.426;2023-02-27T07:57:39;7.07;;;3.10;;
7473;SDS011;3778;42.572;23.426;2023-02-27T08:00:08;5.37;;;3.23;;
7473;SDS011;3778;42.572;23.426;2023-02-27T08:02:36;6.70;;;3.47;;
7473;SDS011;3778;42.572;23.426;2023-02-27T08:05:03;6.40;;;3.13;;
7473;SDS011;3778;42.572;23.426;2023-02-27T08:07:30;5.27;;;3.43;;
7473;SDS011;3778;42.572;23.426;2023-02-27T08:09:57;4.60;;;2.90;;
7473;SDS011;3778;42.572;23.426;2023-02-27T08:12:24;7.53;;;3.07;;
7473;SDS011;3778;42.572;23.426;2023-02-27T08:14:51;4.00;;;2.80;;
7473;SDS011;3778;42.572;23.426;2023-02-27T08:17:19;6.27;;;3.70;;
7473;SDS011;3778;42.572;23.426;2023-02-27T08:19:45;5.27;;;3.40;;
7473;SDS011;3778;42.572;23.426;2023-02-27T08:22:12;5.03;;;3.40;;
7473;SDS011;3778;42.572;23.426;2023-02-27T08:24:39;4.07;;;2.43;;
7473;SDS011;3778;42.572;23.426;2023-02-27T08:27:06;8.77;;;3.57;;
7473;SDS011;3778;42.572;23.426;2023-02-27T08:29:33;4.53;;;3.17;;
7473;SDS011;3778;42.572;23.426;2023-02-27T08:32:00;9.83;;;3.60;;
7473;SDS011;3778;42.572;23.426;2023-02-27T08:34:30;4.43;;;3.20;;
7473;SDS011;3778;42.572;23.426;2023-02-27T08:36:56;7.40;;;3.80;;
7473;SDS011;3778;42.572;23.426;2023-02-27T08:39:23;7.10;;;3.97;;
7473;SDS011;3778;42.572;23.426;2023-02-27T08:41:50;8.77;;;4.03;;
7473;SDS011;3778;42.572;23.426;2023-02-27T08:44:17;5.57;;;3.87;;
7473;SDS011;3778;42.572;23.426;2023-02-27T08:46:44;6.03;;;3.90;;
7473;SDS011;3778;42.572;23.426;2023-02-27T08:49:10;6.20;;;4.13;;
7473;SDS011;3778;42.572;23.426;2023-02-27T08:51:39;7.93;;;4.20;;
7473;SDS011;3778;42.572;23.426;2023-02-27T08:54:05;4.80;;;3.47;;
7473;SDS011;3778;42.572;23.426;2023-02-27T08:56:32;6.37;;;4.40;;
7473;SDS011;3778;42.572;23.426;2023-02-27T08:58:59;8.47;;;4.60;;
7473;SDS011;3778;42.572;23.426;2023-02-27T09:01:26;7.53;;;4.63;;
7473;SDS011;3778;42.572;23.426;2023-02-27T09:03:58;5.23;;;4.00;;
7473;SDS011;3778;42.572;23.426;2023-02-27T09:06:25;8.53;;;3.87;;
7473;SDS011;3778;42.572;23.426;2023-02-27T09:08:53;8.87;;;3.87;;
7473;SDS011;3778;42.572;23.426;2023-02-27T09:11:20;7.03;;;4.30;;
7473;SDS011;3778;42.572;23.426;2023-02-27T09:13:47;4.50;;;3.20;;
7473;SDS011;3778;42.572;23.426;2023-02-27T09:16:15;5.67;;;3.90;;
7473;SDS011;3778;42.572;23.426;2023-02-27T09:18:42;6.67;;;3.67;;
7473;SDS011;3778;42.572;23.426;2023-02-27T09:21:09;6.97;;;4.13;;
7473;SDS011;3778;42.572;23.426;2023-02-27T09:23:36;5.50;;;4.00;;
7473;SDS011;3778;42.572;23.426;2023-02-27T09:26:04;5.43;;;3.00;;
7473;SDS011;3778;42.572;23.426;2023-02-27T09:28:33;7.27;;;3.93;;
7473;SDS011;3778;42.572;23.426;2023-02-27T09:30:59;8.87;;;4.70;;
7473;SDS011;3778;42.572;23.426;2023-02-27T09:33:26;5.80;;;4.20;;
7473;SDS011;3778;42.572;23.426;2023-02-27T09:35:53;8.27;;;3.57;;
7473;SDS011;3778;42.572;23.426;2023-02-27T09:38:20;8.03;;;3.80;;
7473;SDS011;3778;42.572;23.426;2023-02-27T09:40:47;12.50;;;4.27;;
7473;SDS011;3778;42.572;23.426;2023-02-27T09:43:18;5.20;;;3.70;;
7473;SDS011;3778;42.572;23.426;2023-02-27T09:45:50;6.40;;;3.67;;
7473;SDS011;3778;42.572;23.426;2023-02-27T09:48:23;4.20;;;3.43;;
7473;SDS011;3778;42.572;23.426;2023-02-27T09:50:55;5.17;;;3.37;;
7473;SDS011;3778;42.572;23.426;2023-02-27T09:53:24;6.13;;;4.50;;
7473;SDS011;3778;42.572;23.426;2023-02-27T09:55:56;8.23;;;3.97;;
7473;SDS011;3778;42.572;23.426;2023-02-27T09:58:36;7.20;;;4.60;;
7473;SDS011;3778;42.572;23.426;2023-02-27T10:01:12;6.23;;;3.97;;
7473;SDS011;3778;42.572;23.426;2023-02-27T10:03:46;8.17;;;4.60;;
7473;SDS011;3778;42.572;23.426;2023-02-27T10:06:35;10.83;;;4.47;;
7473;SDS011;3778;42.572;23.426;2023-02-27T10:12:04;7.60;;;4.47;;
7473;SDS011;3778;42.572;23.426;2023-02-27T10:14:40;6.57;;;3.50;;
7473;SDS011;3778;42.572;23.426;2023-02-27T10:17:13;11.33;;;4.50;;
7473;SDS011;3778;42.572;23.426;2023-02-27T10:19:44;6.07;;;4.13;;
7473;SDS011;3778;42.572;23.426;2023-02-27T10:22:13;5.27;;;4.00;;
7473;SDS011;3778;42.572;23.426;2023-02-27T10:24:46;5.27;;;3.70;;
7473;SDS011;3778;42.572;23.426;2023-02-27T10:27:18;6.90;;;4.57;;
7473;SDS011;3778;42.572;23.426;2023-02-27T10:29:47;6.23;;;4.40;;
7473;SDS011;3778;42.572;23.426;2023-02-27T10:32:15;8.23;;;4.47;;
7473;SDS011;3778;42.572;23.426;2023-02-27T10:34:46;7.90;;;4.50;;
7473;SDS011;3778;42.572;23.426;2023-02-27T10:37:17;5.93;;;3.63;;
7473;SDS011;3778;42.572;23.426;2023-02-27T10:39:48;6.43;;;4.60;;
7473;SDS011;3778;42.572;23.426;2023-02-27T10:42:19;7.80;;;4.10;;
7473;SDS011;3778;42.572;23.426;2023-02-27T10:44:50;6.60;;;4.53;;
7473;SDS011;3778;42.572;23.426;2023-02-27T10:47:17;6.93;;;5.00;;
7473;SDS011;3778;42.572;23.426;2023-02-27T10:49:47;10.30;;;5.20;;
7473;SDS011;3778;42.572;23.426;2023-02-27T10:52:14;6.07;;;4.60;;
7473;SDS011;3778;42.572;23.426;2023-02-27T10:54:43;13.20;;;5.83;;
7473;SDS011;3778;42.572;23.426;2023-02-27T10:57:20;10.17;;;5.17;;
7473;SDS011;3778;42.572;23.426;2023-02-27T10:59:57;6.17;;;4.47;;
7473;SDS011;3778;42.572;23.426;2023-02-27T11:02:26;8.80;;;4.10;;
7473;SDS011;3778;42.572;23.426;2023-02-27T11:04:58;6.23;;;4.77;;
7473;SDS011;3778;42.572;23.426;2023-02-27T11:07:26;7.87;;;4.67;;
7473;SDS011;3778;42.572;23.426;2023-02-27T11:10:00;10.87;;;5.30;;
7473;SDS011;3778;42.572;23.426;2023-02-27T11:12:30;13.17;;;4.87;;
7473;SDS011;3778;42.572;23.426;2023-02-27T11:15:00;10.07;;;4.60;;
7473;SDS011;3778;42.572;23.426;2023-02-27T11:17:46;9.27;;;5.03;;
7473;SDS011;3778;42.572;23.426;2023-02-27T11:20:31;7.73;;;4.80;;
7473;SDS011;3778;42.572;23.426;2023-02-27T11:23:01;7.17;;;5.00;;
7473;SDS011;3778;42.572;23.426;2023-02-27T11:25:29;8.77;;;5.07;;
7473;SDS011;3778;42.572;23.426;2023-02-27T11:28:11;6.20;;;4.03;;
7473;SDS011;3778;42.572;23.426;2023-02-27T11:30:40;7.00;;;4.23;;
7473;SDS011;3778;42.572;23.426;2023-02-27T11:33:09;11.30;;;4.33;;
7473;SDS011;3778;42.572;23.426;2023-02-27T11:35:48;12.33;;;4.87;;
7473;SDS011;3778;42.572;23.426;2023-02-27T11:38:17;13.17;;;5.67;;
7473;SDS011;3778;42.572;23.426;2023-02-27T11:40:48;5.17;;;4.13;;
7473;SDS011;3778;42.572;23.426;2023-02-27T11:43:19;7.93;;;4.13;;
7473;SDS011;3778;42.572;23.426;2023-02-27T11:45:50;10.73;;;4.20;;
7473;SDS011;3778;42.572;23.426;2023-02-27T11:48:21;6.87;;;4.80;;
7473;SDS011;3778;42.572;23.426;2023-02-27T11:51:01;13.10;;;7.47;;
7473;SDS011;3778;42.572;23.426;2023-02-27T11:53:39;7.70;;;4.20;;
7473;SDS011;3778;42.572;23.426;2023-02-27T11:56:27;9.07;;;4.67;;
7473;SDS011;3778;42.572;23.426;2023-02-27T11:58:58;11.33;;;5.27;;
7473;SDS011;3778;42.572;23.426;2023-02-27T12:01:32;11.20;;;5.83;;
7473;SDS011;3778;42.572;23.426;2023-02-27T12:04:08;8.47;;;5.27;;
7473;SDS011;3778;42.572;23.426;2023-02-27T12:06:41;14.37;;;5.77;;
7473;SDS011;3778;42.572;23.426;2023-02-27T12:09:18;12.63;;;5.90;;
7473;SDS011;3778;42.572;23.426;2023-02-27T12:11:55;13.97;;;6.17;;
7473;SDS011;3778;42.572;23.426;2023-02-27T12:14:24;8.63;;;6.07;;
7473;SDS011;3778;42.572;23.426;2023-02-27T12:16:57;8.37;;;5.67;;
7473;SDS011;3778;42.572;23.426;2023-02-27T12:19:34;15.20;;;7.63;;
7473;SDS011;3778;42.572;23.426;2023-02-27T12:22:08;12.37;;;6.70;;
7473;SDS011;3778;42.572;23.426;2023-02-27T12:24:43;13.80;;;6.23;;
7473;SDS011;3778;42.572;23.426;2023-02-27T12:27:17;11.80;;;6.13;;
7473;SDS011;3778;42.572;23.426;2023-02-27T12:29:47;12.17;;;6.77;;
7473;SDS011;3778;42.572;23.426;2023-02-27T12:32:19;11.10;;;6.07;;
7473;SDS011;3778;42.572;23.426;2023-02-27T12:34:50;12.00;;;5.30;;
7473;SDS011;3778;42.572;23.426;2023-02-27T12:37:21;10.27;;;5.77;;
7473;SDS011;3778;42.572;23.426;2023-02-27T12:39:49;14.93;;;5.90;;
7473;SDS011;3778;42.572;23.426;2023-02-27T12:42:25;13.17;;;6.53;;
7473;SDS011;3778;42.572;23.426;2023-02-27T12:47:57;40.83;;;7.47;;
7473;SDS011;3778;42.572;23.426;2023-02-27T12:50:39;13.30;;;7.73;;
7473;SDS011;3778;42.572;23.426;2023-02-27T12:53:15;10.83;;;5.43;;
7473;SDS011;3778;42.572;23.426;2023-02-27T12:55:52;13.80;;;6.23;;
7473;SDS011;3778;42.572;23.426;2023-02-27T12:58:27;8.23;;;5.53;;
7473;SDS011;3778;42.572;23.426;2023-02-27T13:01:01;13.23;;;5.83;;
7473;SDS011;3778;42.572;23.426;2023-02-27T13:03:39;8.80;;;5.93;;
7473;SDS011;3778;42.572;23.426;2023-02-27T13:06:16;10.77;;;5.47;;
7473;SDS011;3778;42.572;23.426;2023-02-27T13:11:57;10.80;;;5.50;;
7473;SDS011;3778;42.572;23.426;2023-02-27T13:14:36;10.00;;;5.63;;
7473;SDS011;3778;42.572;23.426;2023-02-27T13:17:11;14.33;;;5.80;;
7473;SDS011;3778;42.572;23.426;2023-02-27T13:19:49;11.73;;;5.77;;
7473;SDS011;3778;42.572;23.426;2023-02-27T13:22:21;7.10;;;5.43;;
7473;SDS011;3778;42.572;23.426;2023-02-27T13:24:54;12.17;;;5.83;;
7473;SDS011;3778;42.572;23.426;2023-02-27T13:27:25;10.63;;;5.50;;
7473;SDS011;3778;42.572;23.426;2023-02-27T13:29:55;11.97;;;5.77;;
7473;SDS011;3778;42.572;23.426;2023-02-27T13:32:32;10.20;;;5.40;;
7473;SDS011;3778;42.572;23.426;2023-02-27T13:35:12;10.33;;;6.33;;
7473;SDS011;3778;42.572;23.426;2023-02-27T13:37:55;8.23;;;5.00;;
7473;SDS011;3778;42.572;23.426;2023-02-27T13:40:27;12.47;;;5.57;;
7473;SDS011;3778;42.572;23.426;2023-02-27T13:43:05;10.33;;;5.00;;
7473;SDS011;3778;42.572;23.426;2023-02-27T13:45:58;10.80;;;6.03;;
7473;SDS011;3778;42.572;23.426;2023-02-27T13:48:35;8.33;;;4.80;;
7473;SDS011;3778;42.572;23.426;2023-02-27T13:54:29;13.63;;;5.83;;
7473;SDS011;3778;42.572;23.426;2023-02-27T13:57:14;14.27;;;5.93;;
7473;SDS011;3778;42.572;23.426;2023-02-27T14:00:00;10.00;;;4.67;;
7473;SDS011;3778;42.572;23.426;2023-02-27T14:02:37;15.87;;;6.77;;
7473;SDS011;3778;42.572;23.426;2023-02-27T14:05:08;8.93;;;5.00;;
7473;SDS011;3778;42.572;23.426;2023-02-27T14:07:58;10.13;;;5.53;;
7473;SDS011;3778;42.572;23.426;2023-02-27T14:10:30;13.13;;;5.83;;
7473;SDS011;3778;42.572;23.426;2023-02-27T14:12:57;8.43;;;4.93;;
7473;SDS011;3778;42.572;23.426;2023-02-27T14:24:24;13.03;;;6.30;;
7473;SDS011;3778;42.572;23.426;2023-02-27T14:26:55;12.83;;;7.20;;
7473;SDS011;3778;42.572;23.426;2023-02-27T14:29:23;10.77;;;7.27;;
7473;SDS011;3778;42.572;23.426;2023-02-27T14:31:55;13.40;;;7.17;;
7473;SDS011;3778;42.572;23.426;2023-02-27T14:34:25;12.00;;;6.60;;
7473;SDS011;3778;42.572;23.426;2023-02-27T14:36:52;11.07;;;6.93;;
7473;SDS011;3778;42.572;23.426;2023-02-27T14:39:22;13.23;;;7.23;;
7473;SDS011;3778;42.572;23.426;2023-02-27T14:41:57;12.67;;;8.30;;
7473;SDS011;3778;42.572;23.426;2023-02-27T14:44:36;13.60;;;8.20;;
7473;SDS011;3778;42.572;23.426;2023-02-27T14:47:07;10.90;;;7.50;;
7473;SDS011;3778;42.572;23.426;2023-02-27T14:49:39;11.90;;;7.53;;
7473;SDS011;3778;42.572;23.426;2023-02-27T14:52:10;14.77;;;7.20;;
7473;SDS011;3778;42.572;23.426;2023-02-27T14:54:39;10.40;;;6.33;;
7473;SDS011;3778;42.572;23.426;2023-02-27T14:57:13;13.60;;;6.33;;
7473;SDS011;3778;42.572;23.426;2023-02-27T14:59:43;10.97;;;6.83;;
7473;SDS011;3778;42.572;23.426;2023-02-27T15:02:17;10.40;;;6.07;;
7473;SDS011;3778;42.572;23.426;2023-02-27T15:04:48;9.73;;;5.83;;
7473;SDS011;3778;42.572;23.426;2023-02-27T15:07:20;10.67;;;5.60;;
7473;SDS011;3778;42.572;23.426;2023-02-27T15:09:52;10.43;;;6.70;;
7473;SDS011;3778;42.572;23.426;2023-02-27T15:12:22;11.97;;;6.60;;
7473;SDS011;3778;42.572;23.426;2023-02-27T15:14:51;12.37;;;6.83;;
7473;SDS011;3778;42.572;23.426;2023-02-27T15:17:20;10.73;;;6.30;;
7473;SDS011;3778;42.572;23.426;2023-02-27T15:19:48;13.80;;;7.67;;
7473;SDS011;3778;42.572;23.426;2023-02-27T15:22:17;10.60;;;6.87;;
7473;SDS011;3778;42.572;23.426;2023-02-27T15:24:45;13.70;;;7.20;;
7473;SDS011;3778;42.572;23.426;2023-02-27T15:27:14;10.00;;;6.40;;
7473;SDS011;3778;42.572;23.426;2023-02-27T15:29:47;10.90;;;6.03;;
7473;SDS011;3778;42.572;23.426;2023-02-27T15:32:16;13.13;;;5.83;;
7473;SDS011;3778;42.572;23.426;2023-02-27T15:34:50;9.57;;;5.97;;
7473;SDS011;3778;42.572;23.426;2023-02-27T15:37:17;14.30;;;7.97;;
7473;SDS011;3778;42.572;23.426;2023-02-27T15:39:46;15.07;;;6.23;;
7473;SDS011;3778;42.572;23.426;2023-02-27T15:42:15;10.97;;;7.07;;
7473;SDS011;3778;42.572;23.426;2023-02-27T15:44:42;10.40;;;6.60;;
7473;SDS011;3778;42.572;23.426;2023-02-27T15:47:12;11.67;;;6.63;;
7473;SDS011;3778;42.572;23.426;2023-02-27T15:49:41;12.67;;;6.43;;
7473;SDS011;3778;42.572;23.426;2023-02-27T15:52:11;14.43;;;7.73;;